sensor_id;sensor_type;location;lat;lon;timestamp;P1;durP1;ratioP1;P2;durP2;ratioP2
71814;SDS011;59659;41.520;23.794;2023-04-06T00:00:19;7.43;;;3.55;;
71814;SDS011;59659;41.520;23.794;2023-04-06T00:01:33;6.15;;;4.30;;
71814;SDS011;59659;41.520;23.794;2023-04-06T00:02:45;6.03;;;3.20;;
71814;SDS011;59659;41.520;23.794;2023-04-06T00:03:57;5.65;;;3.30;;
71814;SDS011;59659;41.520;23.794;2023-04-06T00:05:08;7.25;;;3.58;;
71814;SDS011;59659;41.520;23.794;2023-04-06T00:06:20;6.50;;;2.97;;
71814;SDS011;59659;41.520;23.794;2023-04-06T00:07:31;5.45;;;3.03;;
71814;SDS011;59659;41.520;23.794;2023-04-06T00:08:44;5.45;;;3.63;;
71814;SDS011;59659;41.520;23.794;2023-04-06T00:09:56;5.68;;;3.42;;
71814;SDS011;59659;41.520;23.794;2023-04-06T00:11:07;5.10;;;3.17;;
71814;SDS011;59659;41.520;23.794;2023-04-06T00:12:19;8.18;;;3.60;;
71814;SDS011;59659;41.520;23.794;2023-04-06T00:13:31;6.70;;;3.80;;
71814;SDS011;59659;41.520;23.794;2023-04-06T00:14:42;6.47;;;3.47;;
71814;SDS011;59659;41.520;23.794;2023-04-06T00:15:53;8.13;;;4.53;;
71814;SDS011;59659;41.520;23.794;2023-04-06T00:17:05;5.57;;;3.72;;
71814;SDS011;59659;41.520;23.794;2023-04-06T00:18:22;6.75;;;3.92;;
71814;SDS011;59659;41.520;23.794;2023-04-06T00:19:33;6.85;;;3.65;;
71814;SDS011;59659;41.520;23.794;2023-04-06T00:20:45;7.30;;;4.28;;
71814;SDS011;59659;41.520;23.794;2023-04-06T00:21:56;4.72;;;3.38;;
71814;SDS011;59659;41.520;23.794;2023-04-06T00:23:08;5.18;;;3.17;;
71814;SDS011;59659;41.520;23.794;2023-04-06T00:24:19;6.68;;;3.67;;
71814;SDS011;59659;41.520;23.794;2023-04-06T00:25:31;7.40;;;3.67;;
71814;SDS011;59659;41.520;23.794;2023-04-06T00:26:42;4.80;;;3.15;;
71814;SDS011;59659;41.520;23.794;2023-04-06T00:27:54;5.15;;;3.50;;
71814;SDS011;59659;41.520;23.794;2023-04-06T00:29:05;5.55;;;3.40;;
71814;SDS011;59659;41.520;23.794;2023-04-06T00:30:17;5.35;;;3.05;;
71814;SDS011;59659;41.520;23.794;2023-04-06T00:31:32;5.07;;;3.53;;
71814;SDS011;59659;41.520;23.794;2023-04-06T00:32:44;8.23;;;3.50;;
71814;SDS011;59659;41.520;23.794;2023-04-06T00:33:55;3.97;;;2.85;;
71814;SDS011;59659;41.520;23.794;2023-04-06T00:35:07;5.85;;;3.13;;
71814;SDS011;59659;41.520;23.794;2023-04-06T00:36:18;6.38;;;3.28;;
71814;SDS011;59659;41.520;23.794;2023-04-06T00:37:30;6.57;;;4.07;;
71814;SDS011;59659;41.520;23.794;2023-04-06T00:38:41;8.38;;;4.20;;
71814;SDS011;59659;41.520;23.794;2023-04-06T00:39:53;7.82;;;4.05;;
71814;SDS011;59659;41.520;23.794;2023-04-06T00:41:04;7.75;;;3.50;;
71814;SDS011;59659;41.520;23.794;2023-04-06T00:42:16;4.40;;;3.17;;
71814;SDS011;59659;41.520;23.794;2023-04-06T00:43:29;8.23;;;4.95;;
71814;SDS011;59659;41.520;23.794;2023-04-06T00:44:40;6.50;;;3.78;;
71814;SDS011;59659;41.520;23.794;2023-04-06T00:45:52;9.93;;;4.32;;
71814;SDS011;59659;41.520;23.794;2023-04-06T00:47:04;8.02;;;4.68;;
71814;SDS011;59659;41.520;23.794;2023-04-06T00:48:15;13.63;;;6.20;;
71814;SDS011;59659;41.520;23.794;2023-04-06T00:49:31;9.05;;;5.13;;
71814;SDS011;59659;41.520;23.794;2023-04-06T00:50:43;13.18;;;6.15;;
71814;SDS011;59659;41.520;23.794;2023-04-06T00:51:54;12.32;;;5.55;;
71814;SDS011;59659;41.520;23.794;2023-04-06T00:53:06;11.27;;;6.13;;
71814;SDS011;59659;41.520;23.794;2023-04-06T00:54:20;16.13;;;6.03;;
71814;SDS011;59659;41.520;23.794;2023-04-06T00:55:31;19.10;;;6.68;;
71814;SDS011;59659;41.520;23.794;2023-04-06T00:56:43;19.95;;;7.25;;
71814;SDS011;59659;41.520;23.794;2023-04-06T00:57:55;14.10;;;5.63;;
71814;SDS011;59659;41.520;23.794;2023-04-06T00:59:08;11.20;;;4.63;;
71814;SDS011;59659;41.520;23.794;2023-04-06T01:00:22;9.38;;;3.95;;
71814;SDS011;59659;41.520;23.794;2023-04-06T01:01:33;4.25;;;3.05;;
71814;SDS011;59659;41.520;23.794;2023-04-06T01:02:45;5.72;;;3.35;;
71814;SDS011;59659;41.520;23.794;2023-04-06T01:03:57;6.88;;;3.85;;
71814;SDS011;59659;41.520;23.794;2023-04-06T01:05:09;9.98;;;3.40;;
71814;SDS011;59659;41.520;23.794;2023-04-06T01:06:20;6.25;;;3.17;;
71814;SDS011;59659;41.520;23.794;2023-04-06T01:07:37;6.65;;;3.10;;
71814;SDS011;59659;41.520;23.794;2023-04-06T01:08:48;6.85;;;2.97;;
71814;SDS011;59659;41.520;23.794;2023-04-06T01:10:00;5.78;;;3.10;;
71814;SDS011;59659;41.520;23.794;2023-04-06T01:11:12;4.97;;;3.15;;
71814;SDS011;59659;41.520;23.794;2023-04-06T01:12:23;7.90;;;3.70;;
71814;SDS011;59659;41.520;23.794;2023-04-06T01:13:35;6.32;;;3.75;;
71814;SDS011;59659;41.520;23.794;2023-04-06T01:14:46;6.07;;;3.45;;
71814;SDS011;59659;41.520;23.794;2023-04-06T01:15:58;7.57;;;3.15;;
71814;SDS011;59659;41.520;23.794;2023-04-06T01:17:10;6.57;;;3.13;;
71814;SDS011;59659;41.520;23.794;2023-04-06T01:18:27;7.78;;;3.53;;
71814;SDS011;59659;41.520;23.794;2023-04-06T01:19:39;10.80;;;5.70;;
71814;SDS011;59659;41.520;23.794;2023-04-06T01:20:51;28.38;;;9.98;;
71814;SDS011;59659;41.520;23.794;2023-04-06T01:22:03;22.17;;;7.55;;
71814;SDS011;59659;41.520;23.794;2023-04-06T01:23:14;9.02;;;4.78;;
71814;SDS011;59659;41.520;23.794;2023-04-06T01:24:26;21.42;;;6.82;;
71814;SDS011;59659;41.520;23.794;2023-04-06T01:25:37;27.75;;;10.65;;
71814;SDS011;59659;41.520;23.794;2023-04-06T01:26:49;21.95;;;8.13;;
71814;SDS011;59659;41.520;23.794;2023-04-06T01:28:00;23.23;;;9.60;;
71814;SDS011;59659;41.520;23.794;2023-04-06T01:29:12;26.90;;;8.75;;
71814;SDS011;59659;41.520;23.794;2023-04-06T01:30:23;27.60;;;8.98;;
71814;SDS011;59659;41.520;23.794;2023-04-06T01:31:38;17.27;;;6.60;;
71814;SDS011;59659;41.520;23.794;2023-04-06T01:32:49;13.02;;;6.50;;
71814;SDS011;59659;41.520;23.794;2023-04-06T01:34:02;7.38;;;3.72;;
71814;SDS011;59659;41.520;23.794;2023-04-06T01:35:14;6.03;;;3.33;;
71814;SDS011;59659;41.520;23.794;2023-04-06T01:36:25;6.68;;;4.00;;
71814;SDS011;59659;41.520;23.794;2023-04-06T01:37:37;6.15;;;3.05;;
71814;SDS011;59659;41.520;23.794;2023-04-06T01:38:48;6.45;;;3.42;;
71814;SDS011;59659;41.520;23.794;2023-04-06T01:40:00;10.15;;;3.20;;
71814;SDS011;59659;41.520;23.794;2023-04-06T01:41:12;6.80;;;3.42;;
71814;SDS011;59659;41.520;23.794;2023-04-06T01:42:23;5.22;;;3.85;;
71814;SDS011;59659;41.520;23.794;2023-04-06T01:43:36;8.73;;;4.47;;
71814;SDS011;59659;41.520;23.794;2023-04-06T01:44:47;7.93;;;3.60;;
71814;SDS011;59659;41.520;23.794;2023-04-06T01:45:59;6.72;;;3.08;;
71814;SDS011;59659;41.520;23.794;2023-04-06T01:47:10;4.57;;;2.83;;
71814;SDS011;59659;41.520;23.794;2023-04-06T01:48:22;5.70;;;2.92;;
71814;SDS011;59659;41.520;23.794;2023-04-06T01:49:33;4.63;;;3.05;;
71814;SDS011;59659;41.520;23.794;2023-04-06T01:50:45;5.70;;;3.35;;
71814;SDS011;59659;41.520;23.794;2023-04-06T01:51:56;6.68;;;4.05;;
71814;SDS011;59659;41.520;23.794;2023-04-06T01:53:08;3.78;;;2.95;;
71814;SDS011;59659;41.520;23.794;2023-04-06T01:54:19;5.63;;;3.03;;
71814;SDS011;59659;41.520;23.794;2023-04-06T01:55:31;4.80;;;2.60;;
71814;SDS011;59659;41.520;23.794;2023-04-06T01:56:42;6.07;;;3.25;;
71814;SDS011;59659;41.520;23.794;2023-04-06T01:57:54;6.15;;;3.35;;
71814;SDS011;59659;41.520;23.794;2023-04-06T01:59:05;6.90;;;3.42;;
71814;SDS011;59659;41.520;23.794;2023-04-06T02:00:17;6.30;;;3.30;;
71814;SDS011;59659;41.520;23.794;2023-04-06T02:01:29;9.00;;;4.03;;
71814;SDS011;59659;41.520;23.794;2023-04-06T02:02:41;5.00;;;3.70;;
71814;SDS011;59659;41.520;23.794;2023-04-06T02:03:54;7.25;;;3.80;;
71814;SDS011;59659;41.520;23.794;2023-04-06T02:05:05;5.80;;;3.92;;
71814;SDS011;59659;41.520;23.794;2023-04-06T02:06:17;6.82;;;3.70;;
71814;SDS011;59659;41.520;23.794;2023-04-06T02:07:28;5.05;;;3.28;;
71814;SDS011;59659;41.520;23.794;2023-04-06T02:08:40;6.53;;;3.42;;
71814;SDS011;59659;41.520;23.794;2023-04-06T02:09:53;6.30;;;3.40;;
71814;SDS011;59659;41.520;23.794;2023-04-06T02:11:05;7.07;;;3.72;;
71814;SDS011;59659;41.520;23.794;2023-04-06T02:12:16;4.43;;;2.85;;
71814;SDS011;59659;41.520;23.794;2023-04-06T02:13:28;7.70;;;3.20;;
71814;SDS011;59659;41.520;23.794;2023-04-06T02:14:39;8.10;;;4.05;;
71814;SDS011;59659;41.520;23.794;2023-04-06T02:15:51;7.22;;;3.22;;
71814;SDS011;59659;41.520;23.794;2023-04-06T02:17:02;7.88;;;3.80;;
71814;SDS011;59659;41.520;23.794;2023-04-06T02:18:14;6.95;;;3.83;;
71814;SDS011;59659;41.520;23.794;2023-04-06T02:19:28;6.28;;;3.30;;
71814;SDS011;59659;41.520;23.794;2023-04-06T02:20:40;6.10;;;4.10;;
71814;SDS011;59659;41.520;23.794;2023-04-06T02:21:51;5.75;;;3.45;;
71814;SDS011;59659;41.520;23.794;2023-04-06T02:23:03;5.03;;;3.63;;
71814;SDS011;59659;41.520;23.794;2023-04-06T02:24:14;7.07;;;3.80;;
71814;SDS011;59659;41.520;23.794;2023-04-06T02:25:26;8.68;;;3.63;;
71814;SDS011;59659;41.520;23.794;2023-04-06T02:26:37;5.68;;;3.63;;
71814;SDS011;59659;41.520;23.794;2023-04-06T02:27:49;7.60;;;4.10;;
71814;SDS011;59659;41.520;23.794;2023-04-06T02:29:01;6.60;;;4.03;;
71814;SDS011;59659;41.520;23.794;2023-04-06T02:30:13;5.93;;;3.17;;
71814;SDS011;59659;41.520;23.794;2023-04-06T02:31:24;7.45;;;3.92;;
71814;SDS011;59659;41.520;23.794;2023-04-06T02:32:36;5.00;;;3.28;;
71814;SDS011;59659;41.520;23.794;2023-04-06T02:33:48;5.75;;;3.15;;
71814;SDS011;59659;41.520;23.794;2023-04-06T02:34:59;4.68;;;3.17;;
71814;SDS011;59659;41.520;23.794;2023-04-06T02:36:11;5.25;;;3.78;;
71814;SDS011;59659;41.520;23.794;2023-04-06T02:37:22;6.28;;;3.70;;
71814;SDS011;59659;41.520;23.794;2023-04-06T02:38:37;6.80;;;3.75;;
71814;SDS011;59659;41.520;23.794;2023-04-06T02:39:48;9.23;;;3.45;;
71814;SDS011;59659;41.520;23.794;2023-04-06T02:41:00;7.28;;;3.40;;
71814;SDS011;59659;41.520;23.794;2023-04-06T02:42:11;6.55;;;3.72;;
71814;SDS011;59659;41.520;23.794;2023-04-06T02:43:23;8.25;;;4.10;;
71814;SDS011;59659;41.520;23.794;2023-04-06T02:44:34;7.80;;;3.60;;
71814;SDS011;59659;41.520;23.794;2023-04-06T02:45:46;8.15;;;4.25;;
71814;SDS011;59659;41.520;23.794;2023-04-06T02:46:57;8.38;;;4.20;;
71814;SDS011;59659;41.520;23.794;2023-04-06T02:48:09;7.18;;;3.70;;
71814;SDS011;59659;41.520;23.794;2023-04-06T02:49:21;9.50;;;5.10;;
71814;SDS011;59659;41.520;23.794;2023-04-06T02:50:32;8.80;;;5.00;;
71814;SDS011;59659;41.520;23.794;2023-04-06T02:51:44;6.07;;;3.42;;
71814;SDS011;59659;41.520;23.794;2023-04-06T02:52:55;8.20;;;4.53;;
71814;SDS011;59659;41.520;23.794;2023-04-06T02:54:07;12.60;;;5.03;;
71814;SDS011;59659;41.520;23.794;2023-04-06T02:55:18;7.90;;;4.20;;
71814;SDS011;59659;41.520;23.794;2023-04-06T02:56:32;10.52;;;5.85;;
71814;SDS011;59659;41.520;23.794;2023-04-06T02:57:44;7.43;;;4.47;;
71814;SDS011;59659;41.520;23.794;2023-04-06T02:58:55;32.03;;;14.48;;
71814;SDS011;59659;41.520;23.794;2023-04-06T03:00:07;60.70;;;24.60;;
71814;SDS011;59659;41.520;23.794;2023-04-06T03:01:18;17.45;;;9.10;;
71814;SDS011;59659;41.520;23.794;2023-04-06T03:02:30;13.10;;;6.22;;
71814;SDS011;59659;41.520;23.794;2023-04-06T03:03:42;13.23;;;7.10;;
71814;SDS011;59659;41.520;23.794;2023-04-06T03:04:53;17.42;;;7.95;;
71814;SDS011;59659;41.520;23.794;2023-04-06T03:06:05;13.63;;;6.40;;
71814;SDS011;59659;41.520;23.794;2023-04-06T03:07:17;8.93;;;5.32;;
71814;SDS011;59659;41.520;23.794;2023-04-06T03:08:28;10.40;;;4.75;;
71814;SDS011;59659;41.520;23.794;2023-04-06T03:09:40;8.07;;;4.68;;
71814;SDS011;59659;41.520;23.794;2023-04-06T03:10:51;13.73;;;5.72;;
71814;SDS011;59659;41.520;23.794;2023-04-06T03:12:03;8.18;;;4.47;;
71814;SDS011;59659;41.520;23.794;2023-04-06T03:13:20;9.55;;;5.28;;
71814;SDS011;59659;41.520;23.794;2023-04-06T03:14:32;12.93;;;6.40;;
71814;SDS011;59659;41.520;23.794;2023-04-06T03:15:44;9.20;;;4.63;;
71814;SDS011;59659;41.520;23.794;2023-04-06T03:16:56;9.07;;;5.20;;
71814;SDS011;59659;41.520;23.794;2023-04-06T03:18:07;8.68;;;4.15;;
71814;SDS011;59659;41.520;23.794;2023-04-06T03:19:19;9.48;;;4.00;;
71814;SDS011;59659;41.520;23.794;2023-04-06T03:20:30;12.27;;;4.25;;
71814;SDS011;59659;41.520;23.794;2023-04-06T03:21:42;5.88;;;3.95;;
71814;SDS011;59659;41.520;23.794;2023-04-06T03:22:54;6.40;;;4.00;;
71814;SDS011;59659;41.520;23.794;2023-04-06T03:24:05;8.95;;;5.18;;
71814;SDS011;59659;41.520;23.794;2023-04-06T03:25:17;8.98;;;5.38;;
71814;SDS011;59659;41.520;23.794;2023-04-06T03:26:28;10.60;;;4.28;;
71814;SDS011;59659;41.520;23.794;2023-04-06T03:27:40;6.30;;;3.83;;
71814;SDS011;59659;41.520;23.794;2023-04-06T03:28:51;8.35;;;4.30;;
71814;SDS011;59659;41.520;23.794;2023-04-06T03:30:03;10.43;;;4.68;;
71814;SDS011;59659;41.520;23.794;2023-04-06T03:31:14;5.68;;;3.53;;
71814;SDS011;59659;41.520;23.794;2023-04-06T03:32:26;6.18;;;4.07;;
71814;SDS011;59659;41.520;23.794;2023-04-06T03:33:37;5.65;;;3.42;;
71814;SDS011;59659;41.520;23.794;2023-04-06T03:34:49;7.70;;;3.97;;
71814;SDS011;59659;41.520;23.794;2023-04-06T03:36:00;10.60;;;4.15;;
71814;SDS011;59659;41.520;23.794;2023-04-06T03:37:12;12.68;;;5.38;;
71814;SDS011;59659;41.520;23.794;2023-04-06T03:38:23;7.63;;;3.63;;
71814;SDS011;59659;41.520;23.794;2023-04-06T03:39:35;5.55;;;3.72;;
71814;SDS011;59659;41.520;23.794;2023-04-06T03:40:47;11.82;;;4.65;;
71814;SDS011;59659;41.520;23.794;2023-04-06T03:41:58;7.68;;;4.72;;
71814;SDS011;59659;41.520;23.794;2023-04-06T03:43:10;5.28;;;3.70;;
71814;SDS011;59659;41.520;23.794;2023-04-06T03:44:21;7.55;;;5.07;;
71814;SDS011;59659;41.520;23.794;2023-04-06T03:45:32;8.38;;;5.00;;
71814;SDS011;59659;41.520;23.794;2023-04-06T03:46:44;5.25;;;3.92;;
71814;SDS011;59659;41.520;23.794;2023-04-06T03:47:55;10.25;;;4.38;;
71814;SDS011;59659;41.520;23.794;2023-04-06T03:49:07;7.75;;;4.00;;
71814;SDS011;59659;41.520;23.794;2023-04-06T03:50:19;9.93;;;5.22;;
71814;SDS011;59659;41.520;23.794;2023-04-06T03:51:30;13.45;;;6.72;;
71814;SDS011;59659;41.520;23.794;2023-04-06T03:52:42;8.45;;;4.60;;
71814;SDS011;59659;41.520;23.794;2023-04-06T03:53:53;13.15;;;6.30;;
71814;SDS011;59659;41.520;23.794;2023-04-06T03:55:05;22.77;;;11.50;;
71814;SDS011;59659;41.520;23.794;2023-04-06T03:56:17;35.13;;;18.27;;
71814;SDS011;59659;41.520;23.794;2023-04-06T03:57:28;42.95;;;18.63;;
71814;SDS011;59659;41.520;23.794;2023-04-06T03:58:40;37.22;;;16.27;;
71814;SDS011;59659;41.520;23.794;2023-04-06T03:59:51;37.80;;;16.55;;
71814;SDS011;59659;41.520;23.794;2023-04-06T04:01:03;27.20;;;12.57;;
71814;SDS011;59659;41.520;23.794;2023-04-06T04:02:14;15.35;;;8.13;;
71814;SDS011;59659;41.520;23.794;2023-04-06T04:03:25;13.60;;;7.55;;
71814;SDS011;59659;41.520;23.794;2023-04-06T04:04:39;9.75;;;5.78;;
71814;SDS011;59659;41.520;23.794;2023-04-06T04:05:50;16.27;;;8.20;;
71814;SDS011;59659;41.520;23.794;2023-04-06T04:07:02;14.80;;;7.72;;
71814;SDS011;59659;41.520;23.794;2023-04-06T04:08:13;12.75;;;7.32;;
71814;SDS011;59659;41.520;23.794;2023-04-06T04:09:25;12.63;;;7.15;;
71814;SDS011;59659;41.520;23.794;2023-04-06T04:10:39;12.07;;;7.38;;
71814;SDS011;59659;41.520;23.794;2023-04-06T04:11:51;13.25;;;5.80;;
71814;SDS011;59659;41.520;23.794;2023-04-06T04:13:05;12.15;;;6.93;;
71814;SDS011;59659;41.520;23.794;2023-04-06T04:14:16;9.55;;;5.45;;
71814;SDS011;59659;41.520;23.794;2023-04-06T04:15:28;8.40;;;5.07;;
71814;SDS011;59659;41.520;23.794;2023-04-06T04:16:39;12.40;;;5.78;;
71814;SDS011;59659;41.520;23.794;2023-04-06T04:17:52;10.23;;;6.20;;
71814;SDS011;59659;41.520;23.794;2023-04-06T04:19:04;14.80;;;7.57;;
71814;SDS011;59659;41.520;23.794;2023-04-06T04:20:16;37.13;;;17.67;;
71814;SDS011;59659;41.520;23.794;2023-04-06T04:21:29;74.75;;;27.52;;
71814;SDS011;59659;41.520;23.794;2023-04-06T04:22:41;106.40;;;40.53;;
71814;SDS011;59659;41.520;23.794;2023-04-06T04:23:52;142.98;;;57.28;;
71814;SDS011;59659;41.520;23.794;2023-04-06T04:25:04;116.93;;;41.45;;
71814;SDS011;59659;41.520;23.794;2023-04-06T04:26:16;103.60;;;36.97;;
71814;SDS011;59659;41.520;23.794;2023-04-06T04:27:27;84.57;;;34.58;;
71814;SDS011;59659;41.520;23.794;2023-04-06T04:28:38;67.93;;;32.13;;
71814;SDS011;59659;41.520;23.794;2023-04-06T04:29:50;72.80;;;30.85;;
71814;SDS011;59659;41.520;23.794;2023-04-06T04:31:03;69.82;;;28.30;;
71814;SDS011;59659;41.520;23.794;2023-04-06T04:32:14;68.28;;;26.90;;
71814;SDS011;59659;41.520;23.794;2023-04-06T04:33:26;42.20;;;19.85;;
71814;SDS011;59659;41.520;23.794;2023-04-06T04:34:38;21.55;;;12.32;;
71814;SDS011;59659;41.520;23.794;2023-04-06T04:35:52;22.02;;;10.95;;
71814;SDS011;59659;41.520;23.794;2023-04-06T04:37:03;19.58;;;9.48;;
71814;SDS011;59659;41.520;23.794;2023-04-06T04:38:15;17.02;;;9.40;;
71814;SDS011;59659;41.520;23.794;2023-04-06T04:39:27;20.20;;;10.18;;
71814;SDS011;59659;41.520;23.794;2023-04-06T04:40:38;14.88;;;8.00;;
71814;SDS011;59659;41.520;23.794;2023-04-06T04:41:50;9.95;;;6.40;;
71814;SDS011;59659;41.520;23.794;2023-04-06T04:43:05;11.52;;;5.20;;
71814;SDS011;59659;41.520;23.794;2023-04-06T04:44:16;7.10;;;4.20;;
71814;SDS011;59659;41.520;23.794;2023-04-06T04:45:28;11.32;;;5.60;;
71814;SDS011;59659;41.520;23.794;2023-04-06T04:46:40;14.68;;;6.65;;
71814;SDS011;59659;41.520;23.794;2023-04-06T04:47:52;10.98;;;6.65;;
71814;SDS011;59659;41.520;23.794;2023-04-06T04:49:04;12.48;;;6.75;;
71814;SDS011;59659;41.520;23.794;2023-04-06T04:50:18;11.82;;;6.85;;
71814;SDS011;59659;41.520;23.794;2023-04-06T04:51:30;14.52;;;7.03;;
71814;SDS011;59659;41.520;23.794;2023-04-06T04:52:43;10.30;;;6.13;;
71814;SDS011;59659;41.520;23.794;2023-04-06T04:53:55;11.50;;;6.13;;
71814;SDS011;59659;41.520;23.794;2023-04-06T04:55:06;21.13;;;12.23;;
71814;SDS011;59659;41.520;23.794;2023-04-06T04:56:18;21.10;;;10.30;;
71814;SDS011;59659;41.520;23.794;2023-04-06T04:57:30;16.67;;;8.88;;
71814;SDS011;59659;41.520;23.794;2023-04-06T04:58:44;12.35;;;7.30;;
71814;SDS011;59659;41.520;23.794;2023-04-06T04:59:55;11.98;;;6.93;;
71814;SDS011;59659;41.520;23.794;2023-04-06T05:01:09;15.45;;;6.50;;
71814;SDS011;59659;41.520;23.794;2023-04-06T05:02:20;11.63;;;6.95;;
71814;SDS011;59659;41.520;23.794;2023-04-06T05:03:32;20.88;;;9.40;;
71814;SDS011;59659;41.520;23.794;2023-04-06T05:04:44;32.40;;;15.90;;
71814;SDS011;59659;41.520;23.794;2023-04-06T05:05:58;29.20;;;14.57;;
71814;SDS011;59659;41.520;23.794;2023-04-06T05:07:10;32.88;;;17.00;;
71814;SDS011;59659;41.520;23.794;2023-04-06T05:08:22;35.33;;;18.20;;
71814;SDS011;59659;41.520;23.794;2023-04-06T05:09:33;29.10;;;12.73;;
71814;SDS011;59659;41.520;23.794;2023-04-06T05:10:45;24.13;;;10.18;;
71814;SDS011;59659;41.520;23.794;2023-04-06T05:11:58;19.77;;;10.80;;
71814;SDS011;59659;41.520;23.794;2023-04-06T05:13:10;25.38;;;11.43;;
71814;SDS011;59659;41.520;23.794;2023-04-06T05:14:22;14.93;;;6.93;;
71814;SDS011;59659;41.520;23.794;2023-04-06T05:15:36;16.88;;;7.75;;
71814;SDS011;59659;41.520;23.794;2023-04-06T05:16:49;14.05;;;7.68;;
71814;SDS011;59659;41.520;23.794;2023-04-06T05:18:01;17.58;;;6.97;;
71814;SDS011;59659;41.520;23.794;2023-04-06T05:19:14;14.90;;;6.78;;
71814;SDS011;59659;41.520;23.794;2023-04-06T05:20:26;9.48;;;6.07;;
71814;SDS011;59659;41.520;23.794;2023-04-06T05:21:38;10.50;;;6.57;;
71814;SDS011;59659;41.520;23.794;2023-04-06T05:22:50;10.38;;;6.32;;
71814;SDS011;59659;41.520;23.794;2023-04-06T05:24:05;11.93;;;6.03;;
71814;SDS011;59659;41.520;23.794;2023-04-06T05:25:16;11.27;;;5.10;;
71814;SDS011;59659;41.520;23.794;2023-04-06T05:26:28;14.50;;;5.93;;
71814;SDS011;59659;41.520;23.794;2023-04-06T05:27:39;12.50;;;6.40;;
71814;SDS011;59659;41.520;23.794;2023-04-06T05:28:51;13.27;;;6.70;;
71814;SDS011;59659;41.520;23.794;2023-04-06T05:30:03;9.15;;;5.47;;
71814;SDS011;59659;41.520;23.794;2023-04-06T05:31:14;7.63;;;5.00;;
71814;SDS011;59659;41.520;23.794;2023-04-06T05:32:29;12.40;;;6.85;;
71814;SDS011;59659;41.520;23.794;2023-04-06T05:33:41;11.52;;;7.25;;
71814;SDS011;59659;41.520;23.794;2023-04-06T05:34:52;16.88;;;8.10;;
71814;SDS011;59659;41.520;23.794;2023-04-06T05:36:06;18.70;;;8.32;;
71814;SDS011;59659;41.520;23.794;2023-04-06T05:37:18;21.48;;;10.32;;
71814;SDS011;59659;41.520;23.794;2023-04-06T05:38:30;13.63;;;7.43;;
71814;SDS011;59659;41.520;23.794;2023-04-06T05:39:41;14.25;;;6.50;;
71814;SDS011;59659;41.520;23.794;2023-04-06T05:40:53;16.13;;;8.52;;
71814;SDS011;59659;41.520;23.794;2023-04-06T05:42:05;14.93;;;8.13;;
71814;SDS011;59659;41.520;23.794;2023-04-06T05:43:19;16.15;;;7.53;;
71814;SDS011;59659;41.520;23.794;2023-04-06T05:44:33;9.68;;;6.00;;
71814;SDS011;59659;41.520;23.794;2023-04-06T05:45:45;9.93;;;5.40;;
71814;SDS011;59659;41.520;23.794;2023-04-06T05:46:56;13.05;;;6.43;;
71814;SDS011;59659;41.520;23.794;2023-04-06T05:48:08;11.45;;;5.65;;
71814;SDS011;59659;41.520;23.794;2023-04-06T05:49:19;14.38;;;6.75;;
71814;SDS011;59659;41.520;23.794;2023-04-06T05:50:31;11.25;;;5.90;;
71814;SDS011;59659;41.520;23.794;2023-04-06T05:51:42;15.40;;;6.72;;
71814;SDS011;59659;41.520;23.794;2023-04-06T05:52:54;15.77;;;6.88;;
71814;SDS011;59659;41.520;23.794;2023-04-06T05:54:05;14.68;;;6.68;;
71814;SDS011;59659;41.520;23.794;2023-04-06T05:55:17;12.55;;;6.85;;
71814;SDS011;59659;41.520;23.794;2023-04-06T05:56:28;8.90;;;5.20;;
71814;SDS011;59659;41.520;23.794;2023-04-06T05:57:43;7.47;;;4.45;;
71814;SDS011;59659;41.520;23.794;2023-04-06T05:58:54;9.88;;;5.88;;
71814;SDS011;59659;41.520;23.794;2023-04-06T06:00:10;14.90;;;7.18;;
71814;SDS011;59659;41.520;23.794;2023-04-06T06:01:22;12.43;;;6.28;;
71814;SDS011;59659;41.520;23.794;2023-04-06T06:02:33;24.83;;;10.65;;
71814;SDS011;59659;41.520;23.794;2023-04-06T06:03:46;21.20;;;11.25;;
71814;SDS011;59659;41.520;23.794;2023-04-06T06:04:57;22.98;;;11.93;;
71814;SDS011;59659;41.520;23.794;2023-04-06T06:06:09;16.60;;;9.32;;
71814;SDS011;59659;41.520;23.794;2023-04-06T06:07:21;14.70;;;8.05;;
71814;SDS011;59659;41.520;23.794;2023-04-06T06:08:32;11.98;;;6.47;;
71814;SDS011;59659;41.520;23.794;2023-04-06T06:09:43;20.98;;;9.25;;
71814;SDS011;59659;41.520;23.794;2023-04-06T06:10:55;17.08;;;8.27;;
71814;SDS011;59659;41.520;23.794;2023-04-06T06:12:08;9.32;;;5.65;;
71814;SDS011;59659;41.520;23.794;2023-04-06T06:13:22;10.55;;;5.28;;
71814;SDS011;59659;41.520;23.794;2023-04-06T06:14:36;10.65;;;5.53;;
71814;SDS011;59659;41.520;23.794;2023-04-06T06:15:48;8.82;;;5.13;;
71814;SDS011;59659;41.520;23.794;2023-04-06T06:17:01;12.57;;;5.90;;
71814;SDS011;59659;41.520;23.794;2023-04-06T06:18:14;9.73;;;4.88;;
71814;SDS011;59659;41.520;23.794;2023-04-06T06:19:28;11.13;;;5.13;;
71814;SDS011;59659;41.520;23.794;2023-04-06T06:20:39;9.13;;;5.18;;
71814;SDS011;59659;41.520;23.794;2023-04-06T06:21:51;11.05;;;6.15;;
71814;SDS011;59659;41.520;23.794;2023-04-06T06:23:05;13.35;;;5.65;;
71814;SDS011;59659;41.520;23.794;2023-04-06T06:24:16;16.25;;;6.63;;
71814;SDS011;59659;41.520;23.794;2023-04-06T06:25:28;15.05;;;7.57;;
71814;SDS011;59659;41.520;23.794;2023-04-06T06:26:41;15.75;;;7.28;;
71814;SDS011;59659;41.520;23.794;2023-04-06T06:27:54;15.30;;;7.47;;
71814;SDS011;59659;41.520;23.794;2023-04-06T06:29:07;14.85;;;8.48;;
71814;SDS011;59659;41.520;23.794;2023-04-06T06:30:19;15.30;;;8.55;;
71814;SDS011;59659;41.520;23.794;2023-04-06T06:31:33;16.40;;;10.65;;
71814;SDS011;59659;41.520;23.794;2023-04-06T06:32:45;16.60;;;7.90;;
71814;SDS011;59659;41.520;23.794;2023-04-06T06:33:56;14.32;;;7.03;;
71814;SDS011;59659;41.520;23.794;2023-04-06T06:35:08;14.40;;;6.70;;
71814;SDS011;59659;41.520;23.794;2023-04-06T06:36:19;10.30;;;6.18;;
71814;SDS011;59659;41.520;23.794;2023-04-06T06:37:31;16.02;;;7.18;;
71814;SDS011;59659;41.520;23.794;2023-04-06T06:38:42;11.23;;;6.70;;
71814;SDS011;59659;41.520;23.794;2023-04-06T06:39:54;13.75;;;6.63;;
71814;SDS011;59659;41.520;23.794;2023-04-06T06:41:07;19.73;;;7.47;;
71814;SDS011;59659;41.520;23.794;2023-04-06T06:42:19;15.13;;;6.50;;
71814;SDS011;59659;41.520;23.794;2023-04-06T06:43:30;18.35;;;8.80;;
71814;SDS011;59659;41.520;23.794;2023-04-06T06:44:44;45.85;;;18.90;;
71814;SDS011;59659;41.520;23.794;2023-04-06T06:45:56;64.18;;;25.70;;
71814;SDS011;59659;41.520;23.794;2023-04-06T06:47:07;21.52;;;10.50;;
71814;SDS011;59659;41.520;23.794;2023-04-06T06:48:21;13.35;;;6.70;;
71814;SDS011;59659;41.520;23.794;2023-04-06T06:49:33;19.17;;;7.82;;
71814;SDS011;59659;41.520;23.794;2023-04-06T06:50:44;9.27;;;5.00;;
71814;SDS011;59659;41.520;23.794;2023-04-06T06:51:58;14.73;;;5.82;;
71814;SDS011;59659;41.520;23.794;2023-04-06T06:53:09;17.25;;;8.75;;
71814;SDS011;59659;41.520;23.794;2023-04-06T06:54:27;16.48;;;7.07;;
71814;SDS011;59659;41.520;23.794;2023-04-06T06:55:43;10.30;;;6.57;;
71814;SDS011;59659;41.520;23.794;2023-04-06T06:56:55;16.23;;;6.65;;
71814;SDS011;59659;41.520;23.794;2023-04-06T06:58:07;9.75;;;6.28;;
71814;SDS011;59659;41.520;23.794;2023-04-06T06:59:19;11.55;;;6.25;;
71814;SDS011;59659;41.520;23.794;2023-04-06T07:00:32;10.95;;;6.38;;
71814;SDS011;59659;41.520;23.794;2023-04-06T07:01:44;10.57;;;5.93;;
71814;SDS011;59659;41.520;23.794;2023-04-06T07:02:55;19.42;;;7.28;;